createdAt,value
2023-03-18T00:01:41.846Z,13.13
2023-03-18T00:04:27.692Z,12.73
2023-03-18T00:07:13.143Z,12.27
2023-03-18T00:10:04.210Z,12.90
2023-03-18T00:12:50.503Z,12.73
2023-03-18T00:15:37.187Z,13.93
2023-03-18T00:18:24.784Z,13.50
2023-03-18T00:21:12.046Z,14.98
2023-03-18T00:24:01.292Z,13.85
2023-03-18T00:26:48.590Z,14.32
2023-03-18T00:29:37.650Z,13.90
2023-03-18T00:32:30.125Z,13.23
2023-03-18T00:35:16.534Z,15.18
2023-03-18T00:38:05.275Z,15.27
2023-03-18T00:41:01.346Z,16.20
2023-03-18T00:43:52.625Z,15.50
2023-03-18T00:46:38.648Z,15.52
2023-03-18T00:49:26.432Z,15.45
2023-03-18T00:52:11.874Z,16.83
2023-03-18T00:54:57.393Z,17.60
2023-03-18T00:57:43.273Z,17.10
2023-03-18T01:00:29.832Z,16.38
2023-03-18T01:03:15.841Z,17.73
2023-03-18T01:06:05.616Z,17.77
2023-03-18T01:08:58.625Z,16.75
2023-03-18T01:11:44.260Z,18.90
2023-03-18T01:14:29.974Z,17.42
2023-03-18T01:17:15.585Z,17.55
2023-03-18T01:20:03.718Z,17.60
2023-03-18T01:22:50.171Z,18.17
2023-03-18T01:25:38.998Z,18.63
2023-03-18T01:28:27.474Z,17.60
2023-03-18T01:31:12.703Z,17.70
2023-03-18T01:33:59.773Z,17.95
2023-03-18T01:36:46.570Z,17.60
2023-03-18T01:39:32.132Z,19.48
2023-03-18T01:42:23.641Z,20.25
2023-03-18T01:45:24.233Z,19.77
2023-03-18T01:48:17.530Z,20.77
2023-03-18T01:51:08.988Z,20.27
2023-03-18T01:53:57.639Z,22.17
2023-03-18T01:56:45.246Z,20.52
2023-03-18T01:59:33.787Z,22.10
2023-03-18T02:02:20.989Z,21.95
2023-03-18T02:05:27.550Z,21.75
2023-03-18T02:08:13.269Z,21.48
2023-03-18T02:10:59.221Z,20.65
2023-03-18T02:13:46.940Z,22.60
2023-03-18T02:16:46.071Z,20.95
2023-03-18T02:19:50.730Z,20.83
2023-03-18T02:22:43.382Z,22.08
2023-03-18T02:25:50.077Z,19.48
2023-03-18T02:28:37.461Z,20.38
2023-03-18T02:31:27.182Z,21.20
2023-03-18T02:34:15.621Z,21.60
2023-03-18T02:37:02.050Z,22.23
2023-03-18T02:39:48.432Z,22.40
2023-03-18T02:42:37.577Z,20.83
2023-03-18T02:45:43.148Z,22.30
2023-03-18T02:48:36.604Z,22.83
2023-03-18T02:51:23.423Z,23.33
2023-03-18T02:54:15.912Z,23.50
2023-03-18T02:57:02.665Z,22.88
2023-03-18T02:59:51.190Z,24.30
2023-03-18T03:02:39.659Z,23.75
2023-03-18T03:05:25.442Z,22.55
2023-03-18T03:08:11.303Z,23.95
2023-03-18T03:11:02.591Z,23.95
2023-03-18T03:13:51.105Z,21.48
2023-03-18T03:16:37.813Z,22.42
2023-03-18T03:19:23.649Z,22.58
2023-03-18T03:22:09.121Z,21.85
2023-03-18T03:24:54.578Z,22.58
2023-03-18T03:27:41.080Z,21.58
2023-03-18T03:30:26.666Z,22.13
2023-03-18T03:33:12.236Z,22.08
2023-03-18T03:35:59.312Z,21.90
2023-03-18T03:38:45.285Z,21.45
2023-03-18T03:41:31.184Z,22.08
2023-03-18T03:44:17.259Z,22.60
2023-03-18T03:47:07.436Z,22.13
2023-03-18T03:49:55.325Z,22.10
2023-03-18T03:52:40.702Z,22.63
2023-03-18T03:55:26.980Z,21.55
2023-03-18T03:58:14.327Z,21.20
2023-03-18T04:01:02.531Z,22.80
2023-03-18T04:03:50.854Z,23.10
2023-03-18T04:06:36.930Z,22.52
2023-03-18T04:09:22.623Z,21.92
2023-03-18T04:12:12.043Z,22.70
2023-03-18T04:14:57.721Z,22.40
2023-03-18T04:17:43.269Z,22.70
2023-03-18T04:20:29.775Z,22.25
2023-03-18T04:23:17.311Z,22.92
2023-03-18T04:26:02.702Z,23.20
2023-03-18T04:28:48.898Z,22.35
2023-03-18T04:31:35.742Z,22.20
2023-03-18T04:34:24.851Z,22.30
2023-03-18T04:37:11.643Z,20.00
2023-03-18T04:39:59.254Z,22.15
2023-03-18T04:42:47.518Z,20.13
2023-03-18T04:45:33.330Z,19.85
2023-03-18T04:48:20.156Z,20.25
2023-03-18T04:51:08.409Z,19.15
2023-03-18T04:53:54.588Z,19.95
2023-03-18T04:56:40.778Z,19.52
2023-03-18T04:59:26.569Z,19.63
2023-03-18T05:02:13.527Z,19.88
2023-03-18T05:05:00.693Z,20.92
2023-03-18T05:07:46.909Z,21.23
2023-03-18T05:10:34.105Z,21.27
2023-03-18T05:13:20.188Z,20.98
2023-03-18T05:16:09.079Z,21.70
2023-03-18T05:18:55.016Z,24.08
2023-03-18T05:21:41.717Z,23.08
2023-03-18T05:24:28.690Z,23.85
2023-03-18T05:27:16.668Z,24.75
2023-03-18T05:30:07.319Z,25.85
2023-03-18T05:33:06.306Z,25.60
2023-03-18T05:36:03.006Z,25.60
2023-03-18T05:38:57.701Z,27.45
2023-03-18T05:41:44.926Z,26.63
2023-03-18T05:44:34.054Z,27.15
2023-03-18T05:47:29.941Z,28.42
2023-03-18T05:50:31.185Z,26.58
2023-03-18T05:53:17.606Z,27.70
2023-03-18T05:56:05.881Z,27.33
2023-03-18T05:58:52.138Z,27.05
2023-03-18T06:01:54.688Z,27.20
2023-03-18T06:04:40.248Z,25.88
2023-03-18T06:07:25.980Z,27.45
2023-03-18T06:10:16.119Z,26.98
2023-03-18T06:13:03.354Z,26.55
2023-03-18T06:15:49.050Z,29.05
2023-03-18T06:18:35.589Z,30.40
2023-03-18T06:21:21.324Z,29.70
2023-03-18T06:24:08.013Z,31.13
2023-03-18T06:26:54.407Z,32.28
2023-03-18T06:29:42.176Z,31.55
2023-03-18T06:32:33.070Z,31.98
2023-03-18T06:35:19.392Z,31.25
2023-03-18T06:38:05.064Z,30.92
2023-03-18T06:40:54.743Z,29.70
2023-03-18T06:43:40.286Z,29.48
2023-03-18T06:46:26.274Z,30.90
2023-03-18T06:49:18.768Z,29.27
2023-03-18T06:54:56.736Z,26.92
2023-03-18T06:57:45.883Z,26.52
2023-03-18T07:00:36.594Z,25.98
2023-03-18T07:03:26.347Z,26.50
2023-03-18T07:06:15.521Z,26.27
2023-03-18T07:09:06.946Z,24.35
2023-03-18T07:11:57.016Z,25.73
2023-03-18T07:14:44.342Z,26.15
2023-03-18T07:17:35.020Z,27.00
2023-03-18T07:20:28.223Z,25.05
2023-03-18T07:23:13.836Z,27.25
2023-03-18T07:26:01.525Z,24.85
2023-03-18T07:28:57.041Z,25.83
2023-03-18T07:31:43.159Z,26.00
2023-03-18T07:34:29.162Z,25.13
2023-03-18T07:37:17.103Z,25.60
2023-03-18T07:40:02.715Z,25.75
2023-03-18T07:42:51.684Z,24.15
2023-03-18T07:45:37.577Z,24.02
2023-03-18T07:48:25.873Z,25.48
2023-03-18T07:51:11.831Z,26.55
2023-03-18T07:54:02.032Z,23.77
2023-03-18T07:56:48.623Z,24.80
2023-03-18T07:59:34.272Z,22.63
2023-03-18T08:02:24.581Z,22.42
2023-03-18T08:05:13.920Z,22.70
2023-03-18T08:07:59.629Z,20.70
2023-03-18T08:10:45.974Z,22.02
2023-03-18T08:13:31.841Z,19.45
2023-03-18T08:16:19.855Z,20.20
2023-03-18T08:19:06.328Z,20.35
2023-03-18T08:21:54.204Z,18.48
2023-03-18T08:24:39.399Z,18.63
2023-03-18T08:27:26.983Z,18.33
2023-03-18T08:30:13.833Z,18.15
2023-03-18T08:33:01.606Z,17.75
2023-03-18T08:35:47.981Z,17.98
2023-03-18T08:38:36.085Z,17.08
2023-03-18T08:41:22.290Z,17.63
2023-03-18T08:44:10.697Z,16.23
2023-03-18T08:46:55.829Z,17.95
2023-03-18T08:49:41.429Z,17.70
2023-03-18T08:52:26.927Z,17.90
2023-03-18T08:55:12.524Z,17.08
2023-03-18T08:57:58.842Z,16.58
2023-03-18T09:00:44.639Z,17.55
2023-03-18T09:03:30.321Z,18.10
2023-03-18T09:06:16.659Z,17.80
2023-03-18T09:09:02.324Z,19.17
2023-03-18T09:11:47.981Z,21.05
2023-03-18T09:14:34.486Z,20.55
2023-03-18T09:17:20.064Z,19.35
2023-03-18T09:20:10.737Z,20.13
2023-03-18T09:22:59.395Z,17.90
2023-03-18T09:25:46.627Z,17.98
2023-03-18T09:28:32.546Z,17.25
2023-03-18T09:31:18.863Z,16.38
2023-03-18T09:34:04.362Z,18.05
2023-03-18T09:36:51.612Z,17.60
2023-03-18T09:39:37.502Z,15.73
2023-03-18T09:42:37.822Z,16.00
2023-03-18T09:45:48.313Z,18.33
2023-03-18T09:49:10.030Z,17.58
2023-03-18T09:52:12.051Z,18.70
2023-03-18T09:55:14.260Z,17.58
2023-03-18T09:58:03.668Z,16.48
2023-03-18T10:00:54.266Z,16.55
2023-03-18T10:04:13.105Z,16.98
2023-03-18T10:07:05.877Z,15.57
2023-03-18T10:09:59.531Z,14.13
2023-03-18T10:12:53.078Z,15.13
2023-03-18T10:15:45.986Z,13.77
2023-03-18T10:18:32.417Z,14.18
2023-03-18T10:21:39.996Z,14.55
2023-03-18T10:24:42.608Z,14.77
2023-03-18T10:27:52.301Z,14.27
2023-03-18T10:30:54.851Z,13.45
2023-03-18T10:33:50.283Z,13.52
2023-03-18T10:36:40.110Z,13.05
2023-03-18T10:39:27.627Z,14.75
2023-03-18T10:42:23.860Z,14.50
2023-03-18T10:45:23.741Z,15.65
2023-03-18T10:48:25.466Z,15.63
2023-03-18T10:51:38.213Z,16.77
2023-03-18T10:54:40.952Z,16.02
2023-03-18T10:57:33.532Z,16.10
2023-03-18T11:00:33.394Z,16.73
2023-03-18T11:03:29.504Z,15.85
2023-03-18T11:06:41.980Z,16.35
2023-03-18T11:09:36.409Z,15.82
2023-03-18T11:12:29.545Z,16.75
2023-03-18T11:15:20.266Z,17.63
2023-03-18T11:18:14.290Z,18.10
2023-03-18T11:21:01.506Z,17.88
2023-03-18T11:24:10.787Z,18.45
2023-03-18T11:26:57.423Z,16.02
2023-03-18T11:29:47.007Z,15.55
2023-03-18T11:32:34.462Z,15.10
2023-03-18T11:35:29.221Z,13.90
2023-03-18T11:38:29.430Z,15.40
2023-03-18T11:41:27.609Z,14.55
2023-03-18T11:44:33.809Z,13.18
2023-03-18T11:47:27.390Z,11.85
2023-03-18T11:50:20.214Z,11.75
2023-03-18T11:53:20.108Z,10.23
2023-03-18T11:56:31.038Z,11.70
2023-03-18T11:59:22.235Z,10.85
2023-03-18T12:02:34.249Z,10.77
2023-03-18T12:05:29.187Z,10.77
2023-03-18T12:09:03.323Z,11.13
2023-03-18T12:12:00.355Z,10.32
2023-03-18T12:15:10.093Z,10.18
2023-03-18T12:18:18.766Z,9.82
2023-03-18T12:21:32.124Z,8.38
2023-03-18T12:24:32.819Z,6.93
2023-03-18T12:27:56.558Z,6.47
2023-03-18T12:31:15.660Z,7.40
2023-03-18T12:34:03.343Z,6.20
2023-03-18T12:37:08.286Z,7.88
2023-03-18T12:40:17.969Z,7.20
2023-03-18T12:43:40.489Z,6.55
2023-03-18T12:46:56.341Z,6.97
2023-03-18T12:49:52.612Z,6.78
2023-03-18T12:52:48.284Z,6.80
2023-03-18T12:55:38.778Z,6.97
2023-03-18T12:59:06.330Z,6.72
2023-03-18T13:02:10.157Z,7.82
2023-03-18T13:05:00.384Z,7.05
2023-03-18T13:07:54.062Z,6.18
2023-03-18T13:10:40.805Z,5.63
2023-03-18T13:13:28.888Z,5.95
2023-03-18T13:16:15.689Z,5.03
2023-03-18T13:19:04.551Z,4.60
2023-03-18T13:22:12.271Z,4.82
2023-03-18T13:25:30.558Z,4.80
2023-03-18T13:28:22.859Z,4.93
2023-03-18T13:31:32.940Z,4.95
2023-03-18T13:34:57.246Z,5.65
2023-03-18T13:37:44.557Z,4.93
2023-03-18T13:40:39.181Z,4.90
2023-03-18T13:46:23.653Z,5.45
2023-03-18T13:49:24.485Z,4.32
2023-03-18T13:52:27.645Z,3.53
2023-03-18T13:55:26.482Z,3.20
2023-03-18T13:58:21.432Z,2.75
2023-03-18T14:01:17.541Z,2.65
2023-03-18T14:04:23.062Z,2.35
2023-03-18T14:07:13.676Z,2.42
2023-03-18T14:10:18.323Z,2.42
2023-03-18T14:13:27.280Z,1.90
2023-03-18T14:16:20.397Z,2.28
2023-03-18T14:19:13.450Z,2.17
2023-03-18T14:22:08.095Z,1.48
2023-03-18T14:25:20.080Z,1.65
2023-03-18T14:28:09.243Z,1.42
2023-03-18T14:31:32.473Z,1.92
2023-03-18T14:34:20.708Z,1.40
2023-03-18T14:37:18.666Z,1.30
2023-03-18T14:40:17.134Z,1.65
2023-03-18T14:43:10.587Z,2.00
2023-03-18T14:46:03.973Z,1.70
2023-03-18T14:48:55.649Z,1.33
2023-03-18T14:51:41.360Z,1.52
2023-03-18T14:54:29.609Z,1.33
2023-03-18T14:57:16.241Z,1.23
2023-03-18T15:00:02.045Z,1.30
2023-03-18T15:03:00.823Z,1.35
2023-03-18T15:05:52.416Z,1.45
2023-03-18T15:08:48.249Z,1.35
2023-03-18T15:11:45.645Z,1.30
2023-03-18T15:14:33.732Z,1.52
2023-03-18T15:17:23.364Z,1.92
2023-03-18T15:20:12.796Z,1.38
2023-03-18T15:22:58.655Z,1.40
2023-03-18T15:25:44.892Z,1.45
2023-03-18T15:28:30.441Z,1.42
2023-03-18T15:31:33.891Z,1.60
2023-03-18T15:34:29.079Z,1.85
2023-03-18T15:37:24.305Z,1.52
2023-03-18T15:40:30.096Z,1.75
2023-03-18T15:43:29.716Z,1.60
2023-03-18T15:46:25.195Z,1.60
2023-03-18T15:49:11.184Z,2.05
2023-03-18T15:52:02.004Z,1.80
2023-03-18T15:54:48.470Z,1.52
2023-03-18T15:57:38.298Z,1.65
2023-03-18T16:00:24.776Z,1.83
2023-03-18T16:03:25.497Z,2.15
2023-03-18T16:06:11.713Z,2.00
2023-03-18T16:08:57.230Z,1.60
2023-03-18T16:11:45.644Z,2.08
2023-03-18T16:14:43.183Z,1.95
2023-03-18T16:17:30.084Z,1.70
2023-03-18T16:20:24.864Z,1.60
2023-03-18T16:23:10.240Z,1.92
2023-03-18T16:25:56.686Z,1.80
2023-03-18T16:28:44.897Z,1.60
2023-03-18T16:31:31.490Z,1.83
2023-03-18T16:34:21.643Z,1.80
2023-03-18T16:37:10.606Z,2.35
2023-03-18T16:39:57.170Z,2.13
2023-03-18T16:42:42.822Z,2.10
2023-03-18T16:45:37.353Z,2.17
2023-03-18T16:48:22.634Z,2.15
2023-03-18T16:51:08.037Z,2.53
2023-03-18T16:53:56.511Z,2.28
2023-03-18T16:56:42.015Z,2.78
2023-03-18T16:59:32.529Z,2.60
2023-03-18T17:02:32.632Z,2.58
2023-03-18T17:05:20.123Z,4.25
2023-03-18T17:08:05.576Z,2.90
2023-03-18T17:10:56.928Z,2.67
2023-03-18T17:13:42.289Z,2.47
2023-03-18T17:16:30.932Z,3.13
2023-03-18T17:19:17.437Z,2.70
2023-03-18T17:22:04.298Z,2.70
2023-03-18T17:24:50.132Z,2.95
2023-03-18T17:27:51.293Z,3.00
2023-03-18T17:30:39.068Z,2.60
2023-03-18T17:33:31.260Z,3.08
2023-03-18T17:36:17.183Z,2.80
2023-03-18T17:39:02.737Z,3.28
2023-03-18T17:41:48.426Z,2.85
2023-03-18T17:44:33.817Z,3.17
2023-03-18T17:47:19.781Z,3.50
2023-03-18T17:50:05.960Z,3.25
2023-03-18T17:52:52.773Z,3.60
2023-03-18T17:55:37.945Z,4.88
2023-03-18T17:58:44.649Z,3.95
2023-03-18T18:01:30.142Z,2.83
2023-03-18T18:04:20.610Z,2.83
2023-03-18T18:07:21.976Z,3.03
2023-03-18T18:10:12.739Z,2.65
2023-03-18T18:12:58.157Z,2.53
2023-03-18T18:15:46.044Z,2.58
2023-03-18T18:18:32.237Z,2.97
2023-03-18T18:21:21.411Z,2.97
2023-03-18T18:24:23.931Z,2.70
2023-03-18T18:27:15.818Z,2.75
2023-03-18T18:30:01.113Z,3.25
2023-03-18T18:32:46.811Z,2.63
2023-03-18T18:35:32.772Z,2.63
2023-03-18T18:38:18.522Z,2.70
2023-03-18T18:41:04.679Z,3.08
2023-03-18T18:43:50.216Z,2.70
2023-03-18T18:46:39.102Z,2.92
2023-03-18T18:49:34.296Z,3.30
2023-03-18T18:52:19.995Z,3.28
2023-03-18T18:55:11.486Z,3.55
2023-03-18T18:57:58.523Z,4.93
2023-03-18T19:00:49.295Z,4.90
2023-03-18T19:03:35.095Z,4.72
2023-03-18T19:06:31.433Z,4.35
2023-03-18T19:09:27.884Z,3.50
2023-03-18T19:12:21.124Z,2.85
2023-03-18T19:15:07.774Z,2.28
2023-03-18T19:17:53.462Z,2.28
2023-03-18T19:20:42.061Z,1.80
2023-03-18T19:23:34.084Z,2.78
2023-03-18T19:26:21.396Z,2.70
2023-03-18T19:29:10.438Z,2.60
2023-03-18T19:31:56.127Z,3.97
2023-03-18T19:34:42.146Z,5.28
2023-03-18T19:37:34.901Z,5.65
2023-03-18T19:40:30.848Z,5.55
2023-03-18T19:43:18.765Z,6.10
2023-03-18T19:46:04.640Z,4.38
2023-03-18T19:48:55.557Z,3.45
2023-03-18T19:51:41.617Z,3.58
2023-03-18T19:54:36.760Z,3.85
2023-03-18T19:57:28.795Z,3.33
2023-03-18T20:00:23.911Z,3.35
2023-03-18T20:03:15.772Z,4.43
2023-03-18T20:06:01.044Z,5.45
2023-03-18T20:08:46.565Z,6.35
2023-03-18T20:11:32.178Z,6.53
2023-03-18T20:14:25.806Z,6.20
2023-03-18T20:17:29.119Z,5.68
2023-03-18T20:20:18.289Z,5.15
2023-03-18T20:23:06.723Z,4.55
2023-03-18T20:25:53.899Z,5.28
2023-03-18T20:28:42.525Z,5.15
2023-03-18T20:31:30.316Z,4.68
2023-03-18T20:34:15.752Z,4.82
2023-03-18T20:37:01.190Z,4.68
2023-03-18T20:39:47.856Z,4.47
2023-03-18T20:42:36.696Z,4.05
2023-03-18T20:45:23.710Z,5.15
2023-03-18T20:48:10.005Z,3.50
2023-03-18T20:50:55.978Z,3.58
2023-03-18T20:53:41.548Z,3.20
2023-03-18T20:56:27.541Z,2.95
2023-03-18T20:59:13.761Z,2.95
2023-03-18T21:01:59.360Z,3.42
2023-03-18T21:04:45.130Z,2.88
2023-03-18T21:07:30.671Z,3.50
2023-03-18T21:10:18.667Z,3.70
2023-03-18T21:13:17.020Z,3.33
2023-03-18T21:16:04.272Z,3.45
2023-03-18T21:18:55.219Z,3.17
2023-03-18T21:21:41.172Z,3.40
2023-03-18T21:24:27.733Z,3.40
2023-03-18T21:27:21.793Z,3.30
2023-03-18T21:30:09.794Z,2.85
2023-03-18T21:32:56.536Z,3.38
2023-03-18T21:35:42.152Z,3.05
2023-03-18T21:38:30.641Z,3.40
2023-03-18T21:41:24.343Z,3.42
2023-03-18T21:44:31.564Z,3.20
2023-03-18T21:47:19.333Z,3.95
2023-03-18T21:50:17.224Z,3.83
2023-03-18T21:53:02.453Z,3.80
2023-03-18T21:55:49.017Z,3.35
2023-03-18T21:58:34.470Z,4.15
2023-03-18T22:01:26.157Z,3.95
2023-03-18T22:04:12.859Z,4.38
2023-03-18T22:06:58.480Z,4.03
2023-03-18T22:09:44.840Z,4.05
2023-03-18T22:12:32.100Z,4.00
2023-03-18T22:15:23.753Z,3.67
2023-03-18T22:18:18.108Z,3.95
2023-03-18T22:21:03.581Z,4.45
2023-03-18T22:23:49.476Z,4.60
2023-03-18T22:26:35.478Z,3.80
2023-03-18T22:29:24.328Z,4.40
2023-03-18T22:32:36.263Z,4.10
2023-03-18T22:35:24.776Z,4.75
2023-03-18T22:38:14.424Z,4.10
2023-03-18T22:40:59.647Z,4.95
2023-03-18T22:43:45.873Z,4.93
2023-03-18T22:46:32.015Z,4.75
2023-03-18T22:49:17.604Z,5.22
2023-03-18T22:52:04.801Z,5.25
2023-03-18T22:54:54.892Z,6.22
2023-03-18T22:57:40.282Z,6.65
2023-03-18T23:00:38.337Z,7.45
2023-03-18T23:03:28.745Z,7.30
2023-03-18T23:06:16.916Z,7.30
2023-03-18T23:09:02.786Z,6.90
2023-03-18T23:11:48.650Z,6.97
2023-03-18T23:14:34.245Z,7.78
2023-03-18T23:17:25.438Z,8.25
2023-03-18T23:20:20.599Z,8.32
2023-03-18T23:26:18.766Z,7.90
2023-03-18T23:29:04.880Z,7.53
2023-03-18T23:31:50.868Z,7.15
2023-03-18T23:34:36.806Z,6.28
2023-03-18T23:37:23.625Z,6.85
2023-03-18T23:40:16.994Z,6.88
2023-03-18T23:43:02.737Z,7.35
2023-03-18T23:45:48.280Z,5.45
2023-03-18T23:48:34.038Z,6.70
2023-03-18T23:51:19.610Z,6.68
2023-03-18T23:54:05.721Z,6.55
2023-03-18T23:56:51.588Z,7.20
2023-03-18T23:59:42.747Z,7.40
